Time;durP1;ratioP1;P1;durP2;ratioP2;P2;SDS_P1;SDS_P2;PMS_P1;PMS_P2;Temp;Humidity;BMP_temperature;BMP_pressure;BME280_temperature;BME280_humidity;BME280_pressure;Samples;Min_cycle;Max_cycle;Signal;HPM_P1;HPM_P2
2024/04/10 00:00:16;;;;;;;31.30;20.75;;;;;;;;;;5005316;28;20510;-75
2024/04/10 00:02:42;;;;;;;31.15;21.30;;;;;;;;;;4988597;28;20460;-73
2024/04/10 00:05:09;;;;;;;36.65;21.48;;;;;;;;;;4989343;28;20092;-75
2024/04/10 00:07:35;;;;;;;34.75;21.10;;;;;;;;;;4989271;28;20022;-74
2024/04/10 00:10:01;;;;;;;38.47;22.10;;;;;;;;;;4989556;28;20033;-75
2024/04/10 00:12:30;;;;;;;38.08;21.73;;;;;;;;;;4989345;28;20037;-75
2024/04/10 00:14:56;;;;;;;32.60;22.67;;;;;;;;;;4988236;28;20050;-74
2024/04/10 00:17:21;;;;;;;34.90;21.60;;;;;;;;;;4988997;28;20192;-75
2024/04/10 00:19:50;;;;;;;22.92;19.30;;;;;;;;;;4989430;28;20415;-75
2024/04/10 00:22:16;;;;;;;26.00;19.70;;;;;;;;;;4989270;28;20042;-75
2024/04/10 00:24:42;;;;;;;38.63;23.10;;;;;;;;;;4988132;28;20046;-74
2024/04/10 00:27:08;;;;;;;28.75;19.08;;;;;;;;;;4989084;28;20464;-75
2024/04/10 00:29:34;;;;;;;41.80;23.70;;;;;;;;;;4990447;28;20470;-75
2024/04/10 00:32:00;;;;;;;49.08;25.50;;;;;;;;;;4989058;28;20034;-74
2024/04/10 00:34:26;;;;;;;33.03;21.45;;;;;;;;;;4987870;28;20046;-74
2024/04/10 00:36:51;;;;;;;37.03;22.90;;;;;;;;;;4988963;28;20133;-73
2024/04/10 00:39:17;;;;;;;85.90;26.17;;;;;;;;;;4988834;28;20550;-73
2024/04/10 00:41:43;;;;;;;143.68;23.40;;;;;;;;;;4988348;28;20037;-73
2024/04/10 00:44:09;;;;;;;118.95;26.73;;;;;;;;;;4987183;28;20416;-73
2024/04/10 00:46:35;;;;;;;145.70;24.92;;;;;;;;;;5003898;28;20035;-73
2024/04/10 00:49:01;;;;;;;126.45;29.70;;;;;;;;;;5003996;28;20030;-74
2024/04/10 00:51:27;;;;;;;52.58;26.20;;;;;;;;;;4986062;28;20031;-73
2024/04/10 00:53:53;;;;;;;142.30;52.38;;;;;;;;;;4970842;28;20093;-72
2024/04/10 00:56:19;;;;;;;240.90;42.97;;;;;;;;;;5004984;28;20125;-73
2024/04/10 00:58:46;;;;;;;272.05;44.53;;;;;;;;;;4984068;28;20121;-73
2024/04/10 01:01:13;;;;;;;125.55;41.17;;;;;;;;;;4986919;28;20410;-73
2024/04/10 01:03:38;;;;;;;601.95;51.65;;;;;;;;;;4986407;28;20046;-73
2024/04/10 01:06:05;;;;;;;520.65;48.22;;;;;;;;;;5003795;28;20038;-73
2024/04/10 01:08:32;;;;;;;672.72;52.30;;;;;;;;;;4988563;28;20137;-73
2024/04/10 01:10:58;;;;;;;634.78;52.25;;;;;;;;;;4985728;28;20026;-74
2024/04/10 01:13:24;;;;;;;339.90;46.58;;;;;;;;;;4991835;28;20069;-73
2024/04/10 01:15:50;;;;;;;134.82;47.97;;;;;;;;;;4992173;28;20030;-73
2024/04/10 01:18:16;;;;;;;126.78;45.90;;;;;;;;;;4992657;28;20056;-74
2024/04/10 01:20:41;;;;;;;217.98;93.47;;;;;;;;;;4993584;28;20049;-73
2024/04/10 01:23:07;;;;;;;188.02;82.40;;;;;;;;;;4991808;28;20054;-72
2024/04/10 01:25:33;;;;;;;174.80;77.03;;;;;;;;;;5007344;28;20061;-72
2024/04/10 01:27:59;;;;;;;163.77;68.20;;;;;;;;;;4991486;28;20030;-74
2024/04/10 01:30:25;;;;;;;144.40;63.72;;;;;;;;;;4989962;28;20031;-72
2024/04/10 01:32:50;;;;;;;147.07;68.78;;;;;;;;;;4991391;28;20057;-73
2024/04/10 01:35:16;;;;;;;163.52;70.95;;;;;;;;;;4992362;28;20038;-74
2024/04/10 01:37:42;;;;;;;152.95;68.45;;;;;;;;;;4991898;28;20129;-73
2024/04/10 01:40:08;;;;;;;148.90;65.85;;;;;;;;;;4992123;28;20731;-73
2024/04/10 01:42:34;;;;;;;168.45;64.25;;;;;;;;;;4991890;28;20046;-75
2024/04/10 01:45:02;;;;;;;136.10;52.95;;;;;;;;;;4991277;28;20414;-75
2024/04/10 01:47:30;;;;;;;153.25;61.28;;;;;;;;;;4991990;28;20067;-73
2024/04/10 01:49:56;;;;;;;142.63;58.95;;;;;;;;;;4991978;28;20034;-74
2024/04/10 01:52:21;;;;;;;131.10;57.75;;;;;;;;;;4990012;28;20077;-74
2024/04/10 01:54:49;;;;;;;133.90;55.55;;;;;;;;;;4990966;28;20042;-74
2024/04/10 01:57:15;;;;;;;111.22;49.05;;;;;;;;;;4992028;28;20034;-74
2024/04/10 01:59:41;;;;;;;114.82;46.25;;;;;;;;;;4992670;28;20022;-74
2024/04/10 02:02:08;;;;;;;79.40;36.35;;;;;;;;;;4992487;28;20096;-74
2024/04/10 02:04:34;;;;;;;86.30;35.83;;;;;;;;;;5005969;28;20050;-74
2024/04/10 02:07:00;;;;;;;145.35;54.22;;;;;;;;;;4990961;28;20030;-74
2024/04/10 02:09:27;;;;;;;68.70;31.88;;;;;;;;;;4991971;28;20421;-74
2024/04/10 02:11:53;;;;;;;63.63;28.52;;;;;;;;;;4991673;28;20034;-73
2024/04/10 02:14:18;;;;;;;67.35;29.00;;;;;;;;;;5007126;28;20419;-74
2024/04/10 02:16:46;;;;;;;68.25;27.50;;;;;;;;;;4991802;28;20051;-74
2024/04/10 02:19:12;;;;;;;106.95;41.83;;;;;;;;;;4991136;28;20600;-74
2024/04/10 02:21:38;;;;;;;137.65;40.75;;;;;;;;;;4991157;28;20030;-74
2024/04/10 02:24:06;;;;;;;343.55;41.17;;;;;;;;;;4972273;28;20434;-73
2024/04/10 02:26:32;;;;;;;75.35;30.00;;;;;;;;;;4983497;28;20498;-73
2024/04/10 02:28:58;;;;;;;57.78;27.85;;;;;;;;;;4991289;28;20030;-74
2024/04/10 02:31:24;;;;;;;59.03;27.65;;;;;;;;;;4986810;28;20035;-73
2024/04/10 02:33:50;;;;;;;65.50;31.15;;;;;;;;;;4986912;28;20042;-73
2024/04/10 02:36:16;;;;;;;58.88;31.23;;;;;;;;;;5006257;28;20100;-73
2024/04/10 02:38:42;;;;;;;68.93;32.33;;;;;;;;;;4992631;28;20120;-73
2024/04/10 02:41:08;;;;;;;73.43;35.78;;;;;;;;;;4992080;28;20069;-75
2024/04/10 02:43:33;;;;;;;68.97;33.92;;;;;;;;;;4990215;28;20086;-74
2024/04/10 02:46:00;;;;;;;64.60;33.88;;;;;;;;;;4989978;28;20036;-74
2024/04/10 02:48:26;;;;;;;73.40;35.05;;;;;;;;;;4988484;28;20066;-72
2024/04/10 02:50:52;;;;;;;67.85;34.13;;;;;;;;;;4973671;28;20089;-75
2024/04/10 02:53:18;;;;;;;106.22;45.38;;;;;;;;;;4991600;28;20041;-75
2024/04/10 02:55:44;;;;;;;236.73;45.08;;;;;;;;;;4990809;28;20046;-75
2024/04/10 02:58:10;;;;;;;441.67;50.55;;;;;;;;;;4991034;28;20041;-76
2024/04/10 03:00:46;;;;;;;426.00;56.00;;;;;;;;;;4989646;28;20030;-74
2024/04/10 03:03:12;;;;;;;402.42;60.05;;;;;;;;;;4988855;28;20046;-75
2024/04/10 03:05:41;;;;;;;567.35;55.60;;;;;;;;;;4979290;28;20499;-74
2024/04/10 03:08:08;;;;;;;642.03;65.03;;;;;;;;;;4991396;28;20538;-73
2024/04/10 03:10:34;;;;;;;633.33;58.20;;;;;;;;;;4986393;28;20612;-75
2024/04/10 03:13:00;;;;;;;437.23;53.88;;;;;;;;;;4989254;28;20157;-74
2024/04/10 03:15:26;;;;;;;428.55;53.40;;;;;;;;;;4990870;28;20458;-73
2024/04/10 03:17:53;;;;;;;423.08;51.97;;;;;;;;;;4988558;28;20461;-73
2024/04/10 03:20:20;;;;;;;413.52;53.17;;;;;;;;;;4991223;28;20041;-74
2024/04/10 03:22:46;;;;;;;531.85;59.50;;;;;;;;;;4989776;28;20161;-74
2024/04/10 03:25:12;;;;;;;516.45;58.10;;;;;;;;;;4991911;28;20586;-74
2024/04/10 03:27:39;;;;;;;1233.97;94.55;;;;;;;;;;4992201;28;20046;-74
2024/04/10 03:30:07;;;;;;;495.05;56.95;;;;;;;;;;4994469;28;20156;-74
2024/04/10 03:32:33;;;;;;;388.48;52.28;;;;;;;;;;4994813;28;20077;-74
2024/04/10 03:34:59;;;;;;;769.20;67.60;;;;;;;;;;4994593;28;20054;-74
2024/04/10 03:37:25;;;;;;;257.05;49.15;;;;;;;;;;4993889;28;20034;-75
2024/04/10 03:39:52;;;;;;;1147.75;86.22;;;;;;;;;;4991430;28;20038;-73
2024/04/10 03:42:18;;;;;;;519.28;70.68;;;;;;;;;;4989840;28;20034;-75
2024/04/10 03:44:43;;;;;;;787.97;74.68;;;;;;;;;;4988194;28;20145;-74
2024/04/10 03:47:09;;;;;;;210.55;40.58;;;;;;;;;;4989750;28;20126;-74
2024/04/10 03:49:35;;;;;;;289.92;43.78;;;;;;;;;;4990139;28;20491;-74
2024/04/10 03:52:01;;;;;;;223.63;41.30;;;;;;;;;;4989768;28;20125;-74
2024/04/10 03:54:27;;;;;;;179.43;35.63;;;;;;;;;;4985357;28;20787;-73
2024/04/10 03:56:53;;;;;;;185.75;37.58;;;;;;;;;;4987372;28;20030;-75
2024/04/10 03:59:19;;;;;;;169.90;34.22;;;;;;;;;;4988294;28;20061;-76
2024/04/10 04:01:45;;;;;;;205.10;34.13;;;;;;;;;;4988228;28;20026;-73
2024/04/10 04:04:11;;;;;;;326.23;35.67;;;;;;;;;;4988843;28;20109;-75
2024/04/10 04:06:37;;;;;;;224.27;32.88;;;;;;;;;;4990741;28;20032;-75
2024/04/10 04:09:03;;;;;;;270.70;31.98;;;;;;;;;;4988764;28;20084;-75
2024/04/10 04:11:29;;;;;;;341.88;33.60;;;;;;;;;;4989669;28;20511;-75
2024/04/10 04:13:55;;;;;;;497.85;43.72;;;;;;;;;;4970712;28;20046;-74
2024/04/10 04:16:20;;;;;;;216.60;28.38;;;;;;;;;;5002807;28;20427;-75
2024/04/10 04:18:46;;;;;;;214.77;26.20;;;;;;;;;;4989640;28;20081;-74
2024/04/10 04:21:12;;;;;;;216.30;25.85;;;;;;;;;;4989276;28;20026;-75
2024/04/10 04:23:38;;;;;;;403.48;33.20;;;;;;;;;;4983481;28;20125;-74
2024/04/10 04:26:04;;;;;;;125.85;21.90;;;;;;;;;;4986748;28;20030;-74
2024/04/10 04:28:30;;;;;;;204.77;23.33;;;;;;;;;;4970488;28;20392;-74
2024/04/10 04:30:56;;;;;;;180.27;21.33;;;;;;;;;;4988986;28;20033;-74
2024/04/10 04:33:23;;;;;;;262.70;31.00;;;;;;;;;;4988359;28;20483;-74
2024/04/10 04:35:49;;;;;;;351.48;33.00;;;;;;;;;;4988719;28;20392;-74
2024/04/10 04:38:15;;;;;;;291.17;28.85;;;;;;;;;;4989111;28;20120;-75
2024/04/10 04:40:41;;;;;;;449.63;31.60;;;;;;;;;;5003778;28;20084;-74
2024/04/10 04:43:10;;;;;;;58.45;21.98;;;;;;;;;;4987728;28;20511;-74
2024/04/10 04:45:36;;;;;;;94.68;18.38;;;;;;;;;;4990209;28;20121;-75
2024/04/10 04:48:03;;;;;;;120.70;18.42;;;;;;;;;;4998061;28;20034;-75
2024/04/10 04:50:29;;;;;;;59.75;19.42;;;;;;;;;;4987394;28;20470;-75
2024/04/10 04:52:55;;;;;;;88.38;19.15;;;;;;;;;;4987979;28;20042;-75
2024/04/10 04:55:21;;;;;;;132.45;18.65;;;;;;;;;;4987836;28;20153;-75
2024/04/10 04:57:46;;;;;;;185.07;17.30;;;;;;;;;;4989079;28;20121;-74
2024/04/10 05:00:14;;;;;;;191.88;20.67;;;;;;;;;;4988815;28;20536;-74
2024/04/10 05:02:42;;;;;;;147.95;17.05;;;;;;;;;;4987546;28;20592;-74
2024/04/10 05:05:15;;;;;;;534.50;38.72;;;;;;;;;;4988004;28;20038;-75
2024/04/10 05:07:41;;;;;;;393.63;27.73;;;;;;;;;;4971782;28;20526;-74
2024/04/10 05:10:08;;;;;;;117.93;16.85;;;;;;;;;;4982333;28;20031;-74
2024/04/10 05:12:34;;;;;;;262.10;22.20;;;;;;;;;;4984055;28;20026;-76
2024/04/10 05:15:00;;;;;;;160.68;19.15;;;;;;;;;;4985378;28;20502;-75
2024/04/10 05:17:26;;;;;;;170.25;19.88;;;;;;;;;;4984347;28;20054;-76
2024/04/10 05:19:52;;;;;;;94.70;16.33;;;;;;;;;;4986314;28;20039;-74
2024/04/10 05:22:18;;;;;;;57.38;15.90;;;;;;;;;;4988525;28;20187;-76
2024/04/10 05:24:43;;;;;;;96.22;16.08;;;;;;;;;;4987871;28;20515;-73
2024/04/10 05:27:10;;;;;;;83.88;14.63;;;;;;;;;;4988467;28;20380;-75
2024/04/10 05:29:37;;;;;;;78.75;16.67;;;;;;;;;;4971032;28;20049;-76
2024/04/10 05:32:03;;;;;;;113.70;16.65;;;;;;;;;;4966326;28;20037;-75
2024/04/10 05:34:29;;;;;;;110.32;15.95;;;;;;;;;;4997632;28;20125;-83
2024/04/10 05:36:54;;;;;;;30.02;13.60;;;;;;;;;;4991726;28;20034;-84
2024/04/10 05:39:23;;;;;;;56.25;13.70;;;;;;;;;;5008954;28;20043;-82
2024/04/10 05:41:49;;;;;;;21.05;11.68;;;;;;;;;;4999138;28;20039;-83
2024/04/10 05:44:25;;;;;;;22.08;12.15;;;;;;;;;;4982063;28;20081;-86
2024/04/10 05:46:51;;;;;;;19.70;11.93;;;;;;;;;;4998471;28;20046;-84
2024/04/10 05:49:16;;;;;;;19.75;11.27;;;;;;;;;;4997014;28;20031;-84
2024/04/10 05:51:42;;;;;;;18.80;11.50;;;;;;;;;;4996282;28;20019;-84
2024/04/10 05:54:08;;;;;;;36.13;13.27;;;;;;;;;;5004416;28;20039;-82
2024/04/10 05:56:34;;;;;;;26.20;13.65;;;;;;;;;;5009959;28;20030;-85
2024/04/10 05:59:00;;;;;;;30.08;13.60;;;;;;;;;;5026851;28;20023;-85
2024/04/10 06:01:25;;;;;;;29.20;14.52;;;;;;;;;;5007550;28;20038;-83
2024/04/10 06:03:52;;;;;;;24.73;13.57;;;;;;;;;;5002229;28;20057;-85
2024/04/10 06:06:18;;;;;;;20.90;13.15;;;;;;;;;;5005153;28;20038;-84
2024/04/10 06:08:44;;;;;;;15.85;11.68;;;;;;;;;;5293305;23;20126;-84
2024/04/10 06:11:10;;;;;;;19.27;12.35;;;;;;;;;;5011545;28;20068;-78
2024/04/10 06:13:36;;;;;;;16.20;12.88;;;;;;;;;;5007394;28;20501;-76
2024/04/10 06:16:02;;;;;;;19.35;12.95;;;;;;;;;;5001573;28;20818;-76
2024/04/10 06:18:28;;;;;;;18.10;11.77;;;;;;;;;;4997773;28;20383;-75
2024/04/10 06:21:00;;;;;;;20.75;12.57;;;;;;;;;;5002554;28;20030;-76
2024/04/10 06:23:27;;;;;;;19.52;13.00;;;;;;;;;;4990441;28;20517;-75
2024/04/10 06:25:54;;;;;;;16.67;13.50;;;;;;;;;;4998903;28;20038;-76
2024/04/10 06:28:24;;;;;;;15.18;11.63;;;;;;;;;;4945806;28;20036;-79
2024/04/10 06:30:57;;;;;;;15.40;10.57;;;;;;;;;;4977656;28;20050;-78
2024/04/10 06:33:23;;;;;;;17.63;11.68;;;;;;;;;;5007896;28;20038;-80
2024/04/10 06:35:57;;;;;;;16.25;11.00;;;;;;;;;;4999318;28;20049;-77
2024/04/10 06:38:24;;;;;;;14.70;10.93;;;;;;;;;;4998599;28;20033;-77
2024/04/10 06:41:24;;;;;;;12.82;10.60;;;;;;;;;;4985966;28;20046;-79
2024/04/10 06:43:50;;;;;;;15.40;11.20;;;;;;;;;;5002781;28;20065;-79
2024/04/10 06:46:23;;;;;;;15.32;12.43;;;;;;;;;;5000012;28;20040;-82
2024/04/10 06:48:48;;;;;;;14.82;11.85;;;;;;;;;;5004888;28;20048;-79
2024/04/10 06:51:14;;;;;;;17.70;11.23;;;;;;;;;;5010123;28;20038;-87
2024/04/10 06:53:40;;;;;;;15.93;11.68;;;;;;;;;;5021074;28;20099;-85
2024/04/10 06:58:39;;;;;;;16.27;10.98;;;;;;;;;;4989619;28;20108;-83
2024/04/10 07:01:05;;;;;;;13.80;10.95;;;;;;;;;;5003081;28;20023;-82
2024/04/10 07:06:30;;;;;;;16.90;12.30;;;;;;;;;;5000086;28;20098;-83
2024/04/10 07:08:57;;;;;;;15.13;12.25;;;;;;;;;;5014521;28;20035;-82
2024/04/10 07:11:22;;;;;;;16.45;12.05;;;;;;;;;;5003847;28;20038;-84
2024/04/10 07:13:49;;;;;;;17.08;12.95;;;;;;;;;;4989573;28;20062;-81
2024/04/10 07:16:15;;;;;;;16.70;12.23;;;;;;;;;;4994926;28;20455;-83
2024/04/10 07:18:40;;;;;;;18.23;12.77;;;;;;;;;;4991933;28;20085;-83
2024/04/10 07:21:10;;;;;;;21.33;12.20;;;;;;;;;;4994900;28;20034;-81
2024/04/10 07:23:37;;;;;;;20.95;11.65;;;;;;;;;;4985456;28;20051;-82
2024/04/10 07:26:08;;;;;;;15.52;12.13;;;;;;;;;;4974544;28;20573;-82
2024/04/10 07:28:35;;;;;;;13.63;10.57;;;;;;;;;;4992617;28;20084;-81
2024/04/10 07:31:00;;;;;;;14.35;11.48;;;;;;;;;;4990602;28;20038;-82
2024/04/10 07:33:26;;;;;;;11.70;10.60;;;;;;;;;;4994020;28;20074;-80
2024/04/10 07:35:52;;;;;;;12.35;10.38;;;;;;;;;;4988279;28;20680;-83
2024/04/10 07:38:18;;;;;;;13.85;9.93;;;;;;;;;;4993926;28;20048;-82
2024/04/10 07:40:53;;;;;;;16.70;9.93;;;;;;;;;;4987966;28;20038;-83
2024/04/10 07:43:29;;;;;;;11.32;8.50;;;;;;;;;;4973037;28;20161;-81
2024/04/10 07:45:55;;;;;;;14.07;7.13;;;;;;;;;;4977293;28;20610;-82
2024/04/10 07:48:20;;;;;;;11.35;7.20;;;;;;;;;;4978111;28;20034;-81
2024/04/10 07:50:46;;;;;;;15.43;8.65;;;;;;;;;;4955888;28;20058;-79
2024/04/10 07:53:12;;;;;;;17.60;8.82;;;;;;;;;;4975905;28;20102;-80
2024/04/10 07:55:38;;;;;;;10.77;7.05;;;;;;;;;;4984536;28;20031;-80
2024/04/10 07:58:04;;;;;;;12.07;6.40;;;;;;;;;;4982009;28;20034;-80
2024/04/10 08:00:30;;;;;;;19.08;8.10;;;;;;;;;;4961762;28;20082;-82
2024/04/10 08:02:56;;;;;;;9.63;7.30;;;;;;;;;;4964884;28;20043;-80
2024/04/10 08:05:22;;;;;;;14.13;7.20;;;;;;;;;;4963764;28;20142;-80
2024/04/10 08:07:48;;;;;;;12.75;7.22;;;;;;;;;;4951645;28;20118;-80
2024/04/10 08:10:14;;;;;;;10.02;6.38;;;;;;;;;;4956529;28;20045;-82
2024/04/10 08:12:40;;;;;;;11.52;5.25;;;;;;;;;;4942232;28;20031;-79
2024/04/10 08:15:08;;;;;;;11.40;5.88;;;;;;;;;;4978400;28;20039;-80
2024/04/10 08:17:38;;;;;;;8.52;4.88;;;;;;;;;;4959704;28;20026;-81
2024/04/10 08:20:05;;;;;;;7.00;4.75;;;;;;;;;;4949997;28;20046;-79
2024/04/10 08:22:31;;;;;;;15.25;5.68;;;;;;;;;;4968067;28;20043;-79
2024/04/10 08:24:57;;;;;;;11.23;5.00;;;;;;;;;;4945928;28;20519;-80
2024/04/10 08:27:23;;;;;;;15.40;5.53;;;;;;;;;;4939745;28;20041;-81
2024/04/10 08:29:49;;;;;;;21.35;4.95;;;;;;;;;;4979642;28;20038;-81
2024/04/10 08:32:15;;;;;;;7.88;5.20;;;;;;;;;;4961050;28;20083;-81
2024/04/10 08:34:41;;;;;;;11.77;5.18;;;;;;;;;;4976326;28;20053;-81
2024/04/10 08:37:06;;;;;;;9.68;4.50;;;;;;;;;;4949323;28;20074;-80
2024/04/10 08:39:32;;;;;;;15.35;5.88;;;;;;;;;;4973134;28;20103;-82
2024/04/10 08:41:59;;;;;;;16.23;6.43;;;;;;;;;;4954508;28;20030;-81
2024/04/10 08:44:25;;;;;;;15.18;6.93;;;;;;;;;;4952852;28;20467;-81
2024/04/10 08:46:50;;;;;;;13.18;5.63;;;;;;;;;;4960357;28;20043;-81
2024/04/10 08:49:17;;;;;;;12.40;5.35;;;;;;;;;;4959219;28;20027;-81
2024/04/10 08:51:43;;;;;;;13.23;5.32;;;;;;;;;;4971768;28;20047;-81
2024/04/10 08:54:08;;;;;;;12.55;5.43;;;;;;;;;;4971180;28;20082;-81
2024/04/10 08:56:34;;;;;;;9.93;5.50;;;;;;;;;;4955087;28;20114;-82
2024/04/10 08:59:00;;;;;;;14.05;4.93;;;;;;;;;;4938077;28;20043;-81
2024/04/10 09:01:47;;;;;;;14.30;5.93;;;;;;;;;;4954533;28;20023;-81
2024/04/10 09:04:13;;;;;;;11.50;5.15;;;;;;;;;;4966663;28;20047;-82
2024/04/10 09:06:39;;;;;;;12.10;5.45;;;;;;;;;;4954618;28;20035;-82
2024/04/10 09:09:08;;;;;;;21.33;6.00;;;;;;;;;;4939675;28;20038;-82
2024/04/10 09:11:34;;;;;;;10.35;4.55;;;;;;;;;;4971986;28;20415;-81
2024/04/10 09:14:03;;;;;;;9.85;4.57;;;;;;;;;;4956027;28;20051;-81
2024/04/10 09:16:30;;;;;;;12.30;5.53;;;;;;;;;;4962755;28;20492;-80
2024/04/10 09:19:06;;;;;;;14.70;4.88;;;;;;;;;;4960675;28;20043;-80
2024/04/10 09:21:32;;;;;;;13.23;4.45;;;;;;;;;;4972058;28;20063;-81
2024/04/10 09:23:58;;;;;;;13.07;3.63;;;;;;;;;;4953271;28;20104;-82
2024/04/10 09:26:24;;;;;;;10.52;4.03;;;;;;;;;;4939115;28;20054;-81
2024/04/10 09:28:50;;;;;;;12.55;4.47;;;;;;;;;;4963902;28;20030;-80
2024/04/10 09:31:25;;;;;;;11.32;5.40;;;;;;;;;;4954023;28;20483;-81
2024/04/10 09:33:51;;;;;;;14.82;3.78;;;;;;;;;;4971672;28;20043;-81
2024/04/10 09:36:17;;;;;;;9.90;4.38;;;;;;;;;;4950054;28;20270;-81
2024/04/10 09:38:43;;;;;;;9.88;4.28;;;;;;;;;;4965084;28;20050;-82
2024/04/10 09:41:28;;;;;;;19.67;4.90;;;;;;;;;;4974658;28;20591;-81
2024/04/10 09:43:58;;;;;;;12.27;4.93;;;;;;;;;;4948995;28;20158;-82
2024/04/10 09:46:24;;;;;;;8.43;4.25;;;;;;;;;;4958552;28;20038;-80
2024/04/10 09:48:50;;;;;;;11.13;4.80;;;;;;;;;;4964558;28;20034;-82
2024/04/10 09:51:16;;;;;;;12.90;4.25;;;;;;;;;;4947358;28;20048;-81
2024/04/10 09:53:42;;;;;;;9.93;3.90;;;;;;;;;;4957212;28;20432;-81
2024/04/10 09:56:09;;;;;;;12.73;4.15;;;;;;;;;;4984675;28;20059;-80
2024/04/10 09:58:35;;;;;;;10.13;3.95;;;;;;;;;;4975942;28;20109;-81
2024/04/10 10:01:04;;;;;;;15.25;4.30;;;;;;;;;;4951652;28;20041;-81
2024/04/10 10:03:30;;;;;;;10.48;4.15;;;;;;;;;;4958761;28;20059;-80
2024/04/10 10:06:02;;;;;;;9.20;4.60;;;;;;;;;;4953891;28;20059;-80
2024/04/10 10:08:28;;;;;;;22.92;4.45;;;;;;;;;;4974609;28;20027;-80
2024/04/10 10:10:54;;;;;;;4.50;3.58;;;;;;;;;;4975691;28;20023;-80
2024/04/10 10:13:30;;;;;;;13.18;5.32;;;;;;;;;;4972698;28;20050;-80
2024/04/10 10:15:59;;;;;;;9.07;5.55;;;;;;;;;;4968861;28;20037;-80
2024/04/10 10:18:26;;;;;;;15.38;4.90;;;;;;;;;;4956574;28;20034;-80
2024/04/10 10:21:04;;;;;;;5.60;3.80;;;;;;;;;;4967821;28;20031;-80
2024/04/10 10:23:37;;;;;;;9.55;4.55;;;;;;;;;;4961682;28;20458;-79
2024/04/10 10:26:03;;;;;;;11.40;5.53;;;;;;;;;;4972581;28;20038;-80
2024/04/10 10:28:29;;;;;;;12.20;4.85;;;;;;;;;;4963575;28;20571;-79
2024/04/10 10:31:06;;;;;;;13.82;4.80;;;;;;;;;;4967932;28;20038;-80
2024/04/10 10:33:32;;;;;;;10.02;4.45;;;;;;;;;;4965912;28;20066;-80
2024/04/10 10:35:58;;;;;;;12.98;4.45;;;;;;;;;;4973382;28;20035;-80
2024/04/10 10:38:24;;;;;;;9.18;5.22;;;;;;;;;;4971941;28;20043;-80
2024/04/10 10:40:50;;;;;;;10.48;4.70;;;;;;;;;;4970400;28;20062;-80
2024/04/10 10:43:17;;;;;;;11.93;5.07;;;;;;;;;;4983870;28;20051;-80
2024/04/10 10:45:49;;;;;;;13.38;5.43;;;;;;;;;;4970877;28;20063;-80
2024/04/10 10:48:16;;;;;;;10.85;6.30;;;;;;;;;;4985934;28;20039;-80
2024/04/10 10:50:41;;;;;;;9.32;5.82;;;;;;;;;;4974051;28;20023;-80
2024/04/10 10:53:08;;;;;;;10.45;6.57;;;;;;;;;;4946432;28;20070;-79
2024/04/10 10:55:34;;;;;;;9.77;5.78;;;;;;;;;;4966915;28;20035;-80
2024/04/10 10:58:01;;;;;;;9.93;6.00;;;;;;;;;;4953474;28;20039;-80
2024/04/10 11:00:29;;;;;;;16.08;6.10;;;;;;;;;;4945473;29;20082;-80
2024/04/10 11:02:57;;;;;;;10.13;5.43;;;;;;;;;;4943955;28;20046;-80
2024/04/10 11:05:23;;;;;;;11.30;5.47;;;;;;;;;;4960924;28;20061;-80
2024/04/10 11:07:56;;;;;;;11.98;6.70;;;;;;;;;;4956114;28;20130;-80
2024/04/10 11:10:23;;;;;;;12.77;5.85;;;;;;;;;;4970335;28;20043;-80
2024/04/10 11:12:56;;;;;;;16.92;5.85;;;;;;;;;;4958388;28;20098;-79
2024/04/10 11:15:22;;;;;;;14.02;5.80;;;;;;;;;;4960071;28;20031;-81
2024/04/10 11:17:48;;;;;;;11.60;4.88;;;;;;;;;;4950382;28;20041;-79
2024/04/10 11:20:16;;;;;;;11.98;5.78;;;;;;;;;;4958131;28;20031;-80
2024/04/10 11:23:01;;;;;;;9.15;4.93;;;;;;;;;;4953596;28;20103;-80
2024/04/10 11:25:29;;;;;;;18.58;6.70;;;;;;;;;;4968390;28;20031;-79
2024/04/10 11:27:58;;;;;;;15.35;5.70;;;;;;;;;;4986780;28;20042;-79
2024/04/10 11:30:24;;;;;;;19.92;6.53;;;;;;;;;;4955454;28;20030;-79
2024/04/10 11:32:51;;;;;;;10.93;6.32;;;;;;;;;;4957121;28;20623;-80
2024/04/10 11:35:17;;;;;;;14.50;6.45;;;;;;;;;;4962075;28;20468;-80
2024/04/10 11:37:42;;;;;;;15.43;6.05;;;;;;;;;;4956631;28;20035;-80
2024/04/10 11:40:11;;;;;;;14.38;6.72;;;;;;;;;;4960098;28;20081;-80
2024/04/10 11:42:40;;;;;;;17.08;6.68;;;;;;;;;;4959337;28;20039;-71
2024/04/10 11:45:09;;;;;;;13.73;7.80;;;;;;;;;;4953362;28;20050;-80
2024/04/10 11:47:38;;;;;;;18.45;10.13;;;;;;;;;;4945915;28;20035;-81
2024/04/10 11:50:07;;;;;;;22.55;11.48;;;;;;;;;;4955613;28;20035;-80
2024/04/10 11:52:33;;;;;;;14.07;10.50;;;;;;;;;;4979175;28;20094;-81
2024/04/10 11:54:59;;;;;;;22.02;9.38;;;;;;;;;;4952982;28;20031;-81
2024/04/10 11:57:25;;;;;;;20.90;10.40;;;;;;;;;;4952632;28;20038;-80
2024/04/10 11:59:51;;;;;;;17.15;9.85;;;;;;;;;;4947615;28;20043;-80
2024/04/10 12:02:17;;;;;;;15.98;9.15;;;;;;;;;;4957678;28;20094;-80
2024/04/10 12:04:43;;;;;;;23.33;10.73;;;;;;;;;;4947384;28;20043;-81
2024/04/10 12:07:09;;;;;;;13.68;8.10;;;;;;;;;;4967446;28;20043;-80
2024/04/10 12:09:39;;;;;;;12.18;5.53;;;;;;;;;;4937733;29;20028;-81
2024/04/10 12:12:06;;;;;;;11.40;5.22;;;;;;;;;;4968678;28;20094;-80
2024/04/10 12:14:31;;;;;;;14.48;6.03;;;;;;;;;;4970033;28;20043;-80
2024/04/10 12:16:58;;;;;;;9.50;6.20;;;;;;;;;;4957537;28;20428;-80
2024/04/10 12:19:23;;;;;;;10.00;6.07;;;;;;;;;;4952891;28;20035;-81
2024/04/10 12:21:49;;;;;;;7.88;5.80;;;;;;;;;;4936461;28;20035;-81
2024/04/10 12:24:15;;;;;;;12.35;6.45;;;;;;;;;;4957997;28;20078;-80
2024/04/10 12:26:41;;;;;;;12.32;6.78;;;;;;;;;;4966000;28;20065;-80
2024/04/10 12:29:07;;;;;;;7.65;5.35;;;;;;;;;;4948048;28;20101;-81
2024/04/10 12:31:32;;;;;;;13.32;4.88;;;;;;;;;;4952308;28;20404;-80
2024/04/10 12:33:58;;;;;;;10.45;5.72;;;;;;;;;;4948590;28;20047;-81
2024/04/10 12:39:09;;;;;;;12.65;7.38;;;;;;;;;;4956155;28;20035;-81
2024/04/10 12:41:35;;;;;;;11.95;6.70;;;;;;;;;;4958583;28;20534;-80
2024/04/10 12:44:02;;;;;;;12.90;7.25;;;;;;;;;;4947407;28;20520;-80
2024/04/10 12:46:30;;;;;;;24.70;7.05;;;;;;;;;;4961134;28;20154;-80
2024/04/10 12:48:56;;;;;;;9.98;6.60;;;;;;;;;;4957746;28;20024;-80
2024/04/10 12:51:21;;;;;;;17.17;6.38;;;;;;;;;;4955054;28;20043;-80
2024/04/10 12:53:47;;;;;;;12.13;6.05;;;;;;;;;;4947584;28;20098;-77
2024/04/10 12:56:13;;;;;;;10.80;6.00;;;;;;;;;;4952623;28;20601;-80
2024/04/10 12:58:40;;;;;;;12.75;6.10;;;;;;;;;;4952551;28;20034;-80
2024/04/10 13:01:06;;;;;;;8.82;6.07;;;;;;;;;;4944177;28;20118;-80
2024/04/10 13:03:34;;;;;;;11.25;6.80;;;;;;;;;;4950390;28;20130;-80
2024/04/10 13:05:59;;;;;;;11.18;6.75;;;;;;;;;;4955882;28;20067;-80
2024/04/10 13:08:25;;;;;;;18.70;7.03;;;;;;;;;;4959550;28;20035;-81
2024/04/10 13:10:52;;;;;;;12.05;6.30;;;;;;;;;;4963505;28;20061;-80
2024/04/10 13:13:18;;;;;;;10.48;6.20;;;;;;;;;;4950164;28;20515;-80
2024/04/10 13:15:44;;;;;;;10.60;6.50;;;;;;;;;;4958718;28;20033;-80
2024/04/10 13:18:10;;;;;;;15.85;6.95;;;;;;;;;;4977635;28;20496;-80
2024/04/10 13:20:36;;;;;;;18.45;6.03;;;;;;;;;;4964120;28;20077;-80
2024/04/10 13:23:02;;;;;;;12.90;7.03;;;;;;;;;;4949452;28;20476;-80
2024/04/10 13:25:28;;;;;;;13.98;6.30;;;;;;;;;;4952507;28;20035;-79
2024/04/10 13:27:54;;;;;;;14.40;6.20;;;;;;;;;;4956520;28;20035;-80
2024/04/10 13:30:20;;;;;;;8.45;5.95;;;;;;;;;;4972843;28;20057;-79
2024/04/10 13:32:46;;;;;;;9.40;5.90;;;;;;;;;;4940237;28;20038;-79
2024/04/10 13:35:12;;;;;;;10.52;5.30;;;;;;;;;;4949262;28;20050;-77
2024/04/10 13:37:38;;;;;;;14.27;6.28;;;;;;;;;;4968160;28;20135;-80
2024/04/10 13:40:04;;;;;;;11.23;6.13;;;;;;;;;;4953957;28;20140;-79
2024/04/10 13:42:30;;;;;;;13.23;5.40;;;;;;;;;;4951039;28;20086;-79
2024/04/10 13:44:56;;;;;;;12.93;6.20;;;;;;;;;;4949504;28;20055;-80
2024/04/10 13:47:22;;;;;;;7.95;5.65;;;;;;;;;;4961551;28;20043;-78
2024/04/10 13:49:47;;;;;;;12.63;5.18;;;;;;;;;;4968083;28;20047;-78
2024/04/10 13:52:13;;;;;;;19.67;5.80;;;;;;;;;;4958927;28;20582;-79
2024/04/10 13:54:39;;;;;;;12.00;5.55;;;;;;;;;;4953112;28;20046;-78
2024/04/10 13:57:05;;;;;;;15.23;5.55;;;;;;;;;;4958760;28;20625;-80
2024/04/10 13:59:31;;;;;;;11.77;4.93;;;;;;;;;;4939689;29;20090;-79
2024/04/10 14:01:57;;;;;;;16.33;5.82;;;;;;;;;;4947271;28;20040;-80
2024/04/10 14:04:23;;;;;;;13.50;5.68;;;;;;;;;;4948783;28;20063;-79
2024/04/10 14:06:49;;;;;;;13.10;5.32;;;;;;;;;;4957180;28;20077;-80
2024/04/10 14:09:15;;;;;;;17.08;5.85;;;;;;;;;;4956455;28;20035;-79
2024/04/10 14:11:40;;;;;;;9.30;6.53;;;;;;;;;;4955884;28;20058;-80
2024/04/10 14:14:06;;;;;;;14.02;6.50;;;;;;;;;;4956924;28;20408;-80
2024/04/10 14:16:32;;;;;;;19.15;6.07;;;;;;;;;;4954520;28;20066;-80
2024/04/10 14:18:58;;;;;;;15.38;5.43;;;;;;;;;;4972148;28;20503;-79
2024/04/10 14:21:24;;;;;;;9.27;5.50;;;;;;;;;;4954932;28;20031;-79
2024/04/10 14:23:50;;;;;;;16.50;6.30;;;;;;;;;;4978533;28;20137;-79
2024/04/10 14:26:16;;;;;;;13.00;5.57;;;;;;;;;;4936778;28;20038;-79